CYHZ/YHZ METAR and TAF weather

Enter ICAO airport designator
Station Type Date Time Source
CYHZ METAR 2018/01/23 01:00 UTC NOAA

CYHZ 230100Z 01002KT 15SM FEW300 M09/M14 A3041 RMK CI2 SLP312


Station Type Date Time Source
CYHZ Decoded METAR 2018/01/23 01:00 UTC NOAA

Halifax International Airport , Canada (CYHZ) 44-53N 063-30W
Jan 22, 2018 - 08:00 PM EST / 2018.01.23 0100 UTC
Wind: from the N (010 degrees) at 2 MPH (2 KT):0
Visibility: 15 mile(s):0
Sky conditions: mostly clear
Temperature: 15 F (-9 C)
Dew Point: 6 F (-14 C)
Relative Humidity: 67%
Pressure (altimeter): 30.41 in. Hg (1029 hPa)
ob: CYHZ 230100Z 01002KT 15SM FEW300 M09/M14 A3041 RMK CI2 SLP312
cycle: 1

Station Type Date Time Source
CYHZ TAF 2018/01/22 21:39 UTC NOAA

TAF CYHZ 222038Z 2221/2318 35012KT P6SM FEW120 BKN240
BECMG 2222/2224 36006KT
BECMG 2301/2303 05005KT
FM230700 08006KT 6SM -SN BKN040 PROB30 2308/2310 11/2SM -SN
FM231000 09012KT 11/2SM -SN OVC020 PROB30 2310/2312 3/4SM -SN
FM231200 09012KT 3/4SM -SN VV008 PROB30 2313/2315 11/2SM -PLSN
FM231500 12015G25KT 2SM -PL -FZRA BR OVC008
RMK NXT FCST BY 230000Z


Example: see airport list